Geyserville, CA (95441)

5:17 PM PDT on August 03, 2015 (GMT -0700)
Canyon Rd. | | Change Station
CLOSE
Current Station
Personal Weather Station
Location: Geyserville, CA
Elevation: 459 ft
Nearby Weather Stations

Elev 459 ft 38.70 °N, 122.94 °W | Updated 17 seconds ago

Clear
Clear
79.8 °F
Feels Like 80 °F
N
2.0
Wind Variable Wind from SSE
Gusts 2.0 mph

Today
High -- | Low -- °F
--% Chance of Precip.
Yesterday
High -- | Low -- °F
Precip. -- in
6:14 AM 8:20 PM
Waning Gibbous, 83% visible
Pressure 29.88 in
Visibility 10.0 miles
Clouds Few 15000 ft
Heat Index 80 °F
Dew Point 58 °F
Humidity 47%
Rainfall 0.00 in
Snow Depth Not available.
UV 4 out of 12
Pollen 6.50 out of 12
Air Quality Not available.
Flu Activity Not available.
METAR KSTS 032353Z 23011KT 10SM FEW150 24/13 A2990 RMK AO2 SLP118 T02440128 10261 20189 55006

More Conditions Fewer Conditions

Pressure 29.88 in
Visibility 10.0 miles
Clouds Few 15000 ft
Heat Index 80 °F
Dew Point 58 °F
Humidity 47%
Rainfall 0.00 in
Snow Depth Not available.
UV 4 out of 12
Pollen 6.50 out of 12
Air Quality Not available.
Flu Activity Not available.
METAR KSTS 032353Z 23011KT 10SM FEW150 24/13 A2990 RMK AO2 SLP118 T02440128 10261 20189 55006

More Conditions Fewer Conditions

10-Day Weather Forecast

×

Almanac

Astronomy

Aug. 03, 2015 Rise Set
Actual Time
Civil Twilight
Nautical Twilight
Astronomical Twilight
Moon
Length of Visible Light
Length of Day
Tomorrow will be .
, % of the Moon is Illuminated

Today's Extremes

State Highs State Lows

Community

WunderPhotos

Upload Photos

1,843,788 photos uploaded!

WunderBlogs® & News

Nearby

Air Quality

  Air Quality AQ Index Pollutant
Not available.

Snow Depth

Station Depth Elevation

Earthquake Activity

City Distance Mag. Time & Date
Minimum magnitude displayed is 2.5.

Coastal Water Temperatures

Place Temperature

Stations

Nearby Weather Stations

Station Location Temp. Windchill Dew Point Humidity Wind Precip. Elev Updated Type